createdAt,value
2018-07-28T00:03:13.502Z,26.40
2018-07-28T00:08:16.775Z,26.40
2018-07-28T00:13:19.950Z,26.30
2018-07-28T00:18:23.115Z,26.30
2018-07-28T00:23:26.309Z,26.10
2018-07-28T00:28:29.528Z,26.00
2018-07-28T00:33:35.227Z,25.80
2018-07-28T00:38:38.406Z,25.60
2018-07-28T00:48:47.349Z,25.50
2018-07-28T00:53:50.637Z,25.70
2018-07-28T00:58:54.046Z,25.80
2018-07-28T01:03:57.358Z,25.80
2018-07-28T01:09:00.545Z,25.80
2018-07-28T01:14:04.751Z,25.70
2018-07-28T01:19:07.944Z,25.50
2018-07-28T01:24:11.153Z,25.30
2018-07-28T01:29:18.264Z,25.20
2018-07-28T01:34:21.471Z,25.10
2018-07-28T01:39:24.642Z,25.10
2018-07-28T01:44:27.831Z,25.20
2018-07-28T01:49:31.127Z,25.50
2018-07-28T01:54:34.309Z,25.80
2018-07-28T01:59:37.566Z,26.00
2018-07-28T02:04:40.734Z,26.20
2018-07-28T02:09:43.953Z,26.30
2018-07-28T02:14:47.152Z,26.30
2018-07-28T02:19:50.434Z,26.40
2018-07-28T02:24:53.961Z,26.30
2018-07-28T02:29:57.163Z,26.10
2018-07-28T02:35:00.394Z,25.90
2018-07-28T02:40:03.583Z,25.60
2018-07-28T02:45:06.722Z,25.30
2018-07-28T02:50:09.918Z,25.10
2018-07-28T02:55:13.089Z,24.80
2018-07-28T03:00:16.904Z,24.80
2018-07-28T03:05:20.037Z,24.80
2018-07-28T03:10:23.213Z,24.60
2018-07-28T03:15:35.070Z,24.50
2018-07-28T03:20:38.246Z,24.30
2018-07-28T03:25:41.413Z,24.10
2018-07-28T03:30:44.603Z,24.10
2018-07-28T03:35:48.758Z,24.00
2018-07-28T03:40:51.977Z,23.80
2018-07-28T03:45:55.207Z,23.90
2018-07-28T03:50:58.392Z,23.60
2018-07-28T03:56:01.537Z,23.50
2018-07-28T04:01:04.745Z,24.00
2018-07-28T04:06:07.905Z,24.20
2018-07-28T04:11:11.097Z,24.30
2018-07-28T04:16:14.715Z,24.60
2018-07-28T04:21:17.872Z,24.80
2018-07-28T04:26:21.029Z,24.70
2018-07-28T04:31:24.218Z,24.60
2018-07-28T04:36:27.378Z,24.50
2018-07-28T04:41:30.621Z,24.70
2018-07-28T04:46:33.912Z,24.80
2018-07-28T04:51:37.723Z,24.80
2018-07-28T04:56:40.929Z,24.80
2018-07-28T05:01:44.130Z,24.80
2018-07-28T05:06:47.297Z,24.70
2018-07-28T05:11:50.485Z,24.70
2018-07-28T05:16:53.700Z,24.70
2018-07-28T05:21:56.886Z,24.60
2018-07-28T05:27:00.135Z,24.60
2018-07-28T05:32:03.322Z,24.60
2018-07-28T05:37:06.568Z,24.60
2018-07-28T05:42:10.764Z,24.70
2018-07-28T05:47:14.050Z,24.70
2018-07-28T05:52:17.297Z,24.70
2018-07-28T06:02:23.510Z,24.80
2018-07-28T06:07:26.766Z,24.80
2018-07-28T06:12:30.111Z,24.80
2018-07-28T06:17:33.323Z,25.10
2018-07-28T06:22:36.934Z,25.20
2018-07-28T06:27:40.313Z,25.40
2018-07-28T06:32:43.576Z,25.50
2018-07-28T06:37:46.728Z,25.40
2018-07-28T06:42:50.024Z,25.30
2018-07-28T06:47:53.232Z,25.30
2018-07-28T06:52:56.409Z,25.30
2018-07-28T06:57:59.606Z,25.20
2018-07-28T07:03:03.234Z,25.00
2018-07-28T07:08:06.881Z,24.90
2018-07-28T07:13:10.088Z,24.90
2018-07-28T07:18:13.304Z,24.80
2018-07-28T07:23:16.521Z,24.70
2018-07-28T07:28:20.866Z,24.60
2018-07-28T07:33:24.261Z,24.50
2018-07-28T07:38:28.480Z,24.50
2018-07-28T07:43:31.686Z,24.40
2018-07-28T07:48:35.289Z,24.50
2018-07-28T07:53:38.585Z,24.20
2018-07-28T07:58:41.767Z,23.40
2018-07-28T08:03:45.050Z,22.90
2018-07-28T08:08:48.274Z,22.50
2018-07-28T08:18:54.686Z,22.70
2018-07-28T08:23:57.897Z,22.70
2018-07-28T08:29:02.157Z,22.90
2018-07-28T08:34:05.544Z,23.10
2018-07-28T08:39:11.194Z,23.20
2018-07-28T08:44:16.542Z,23.40
2018-07-28T08:49:21.005Z,23.60
2018-07-28T08:54:24.382Z,23.60
2018-07-28T08:59:28.074Z,23.60
2018-07-28T09:04:33.538Z,23.40
2018-07-28T09:09:36.821Z,23.40
2018-07-28T09:14:40.075Z,23.40
2018-07-28T09:19:43.336Z,23.30
2018-07-28T09:24:46.497Z,23.30
2018-07-28T09:29:50.843Z,23.00
2018-07-28T09:34:54.169Z,22.90
2018-07-28T09:39:57.505Z,22.90
2018-07-28T09:45:00.782Z,22.90
2018-07-28T09:50:04.492Z,23.10
2018-07-28T09:55:08.671Z,23.30
2018-07-28T10:00:14.113Z,23.60
2018-07-28T10:05:17.345Z,23.80
2018-07-28T10:10:21.997Z,24.00
2018-07-28T10:15:25.905Z,24.00
2018-07-28T10:20:32.856Z,24.20
2018-07-28T10:25:38.255Z,24.30
2018-07-28T10:30:44.920Z,24.30
2018-07-28T10:35:48.245Z,24.40
2018-07-28T10:40:51.986Z,24.30
2018-07-28T10:45:55.209Z,24.30
2018-07-28T10:50:58.429Z,24.40
2018-07-28T10:56:01.645Z,24.50
2018-07-28T11:01:04.834Z,24.50
2018-07-28T11:06:08.755Z,24.80
2018-07-28T11:11:11.992Z,25.10
2018-07-28T11:16:16.245Z,25.20
2018-07-28T11:21:19.501Z,25.30
2018-07-28T11:26:23.800Z,25.30
2018-07-28T11:31:38.517Z,25.30
2018-07-28T11:36:54.280Z,25.50
2018-07-28T11:42:12.600Z,25.70
2018-07-28T11:47:15.772Z,25.90
2018-07-28T11:52:19.070Z,26.10
2018-07-28T11:57:23.578Z,26.10
2018-07-28T12:02:28.085Z,26.60
2018-07-28T12:07:31.342Z,27.20
2018-07-28T12:12:34.759Z,27.30
2018-07-28T12:17:38.985Z,27.30
2018-07-28T12:22:42.200Z,27.60
2018-07-28T12:27:45.426Z,27.50
2018-07-28T12:32:48.656Z,28.00
2018-07-28T12:37:51.978Z,28.00
2018-07-28T12:43:01.813Z,28.10
2018-07-28T12:48:07.894Z,28.20
2018-07-28T12:53:15.514Z,27.90
2018-07-28T12:58:20.019Z,27.90
2018-07-28T13:03:23.251Z,28.30
2018-07-28T13:08:26.969Z,28.80
2018-07-28T13:13:30.170Z,28.80
2018-07-28T13:18:33.389Z,29.00
2018-07-28T13:23:37.765Z,29.20
2018-07-28T13:28:41.066Z,29.40
2018-07-28T13:33:44.731Z,29.20
2018-07-28T13:43:54.206Z,28.50
2018-07-28T13:48:57.461Z,29.20
2018-07-28T13:54:00.861Z,29.40
2018-07-28T13:59:05.372Z,29.40
2018-07-28T14:04:08.638Z,29.20
2018-07-28T14:09:11.918Z,28.90
2018-07-28T14:14:15.141Z,28.90
2018-07-28T14:19:18.330Z,28.80
2018-07-28T14:24:22.598Z,28.50
2018-07-28T14:29:25.885Z,28.30
2018-07-28T14:34:29.354Z,28.60
2018-07-28T14:39:32.786Z,28.70
2018-07-28T14:44:36.042Z,28.70
2018-07-28T14:49:39.235Z,28.80
2018-07-28T14:54:43.829Z,29.00
2018-07-28T14:59:47.105Z,29.10
2018-07-28T15:04:50.297Z,29.00
2018-07-28T15:09:55.001Z,29.00
2018-07-28T15:14:59.264Z,28.80
2018-07-28T15:20:02.724Z,28.30
2018-07-28T15:25:09.494Z,28.00
2018-07-28T15:30:12.674Z,28.00
2018-07-28T15:35:15.911Z,28.10
2018-07-28T15:40:20.142Z,28.00
2018-07-28T15:45:23.334Z,27.70
2018-07-28T15:50:26.549Z,27.80
2018-07-28T15:55:29.786Z,28.00
2018-07-28T16:00:32.970Z,27.90
2018-07-28T16:05:36.216Z,27.80
2018-07-28T16:10:39.382Z,27.50
2018-07-28T16:15:42.997Z,27.50
2018-07-28T16:20:46.230Z,27.50
2018-07-28T16:25:49.517Z,27.40
2018-07-28T16:30:53.253Z,27.00
2018-07-28T16:35:56.490Z,26.50
2018-07-28T16:41:00.333Z,26.30
2018-07-28T16:46:03.649Z,26.20
2018-07-28T16:51:08.603Z,26.10
2018-07-28T16:56:12.149Z,26.00
2018-07-28T17:01:15.441Z,26.00
2018-07-28T17:06:19.758Z,26.00
2018-07-28T17:11:25.169Z,26.00
2018-07-28T17:16:28.357Z,25.90
2018-07-28T17:21:31.614Z,25.70
2018-07-28T17:26:42.278Z,25.50
2018-07-28T17:31:45.549Z,25.50
2018-07-28T17:36:48.849Z,25.20
2018-07-28T17:41:52.125Z,25.00
2018-07-28T17:46:55.450Z,24.90
2018-07-28T17:51:59.721Z,24.80
2018-07-28T17:57:03.895Z,24.60
2018-07-28T18:02:07.146Z,24.30
2018-07-28T18:07:11.205Z,23.90
2018-07-28T18:12:14.486Z,23.60
2018-07-28T18:17:18.710Z,23.50
2018-07-28T18:22:22.918Z,23.40
2018-07-28T18:27:26.165Z,23.40
2018-07-28T18:32:29.348Z,23.20
2018-07-28T18:37:32.593Z,23.30
2018-07-28T18:42:36.898Z,23.20
2018-07-28T18:47:40.113Z,23.10
2018-07-28T18:52:43.294Z,23.00
2018-07-28T18:57:46.512Z,23.00
2018-07-28T19:02:50.703Z,22.90
2018-07-28T19:07:54.637Z,22.80
2018-07-28T19:13:03.289Z,22.70
2018-07-28T19:18:12.043Z,22.50
2018-07-28T19:23:20.646Z,22.40
2018-07-28T19:28:36.723Z,22.40
2018-07-28T19:33:40.810Z,22.20
2018-07-28T19:38:45.376Z,22.10
2018-07-28T19:43:52.297Z,22.00
2018-07-28T19:48:57.581Z,22.10
2018-07-28T19:54:00.791Z,22.00
2018-07-28T20:04:07.393Z,21.90
2018-07-28T20:09:12.281Z,21.90
2018-07-28T20:14:15.645Z,22.00
2018-07-28T20:19:19.132Z,22.00
2018-07-28T20:24:23.393Z,21.80
2018-07-28T20:29:27.477Z,21.70
2018-07-28T20:34:31.418Z,21.70
2018-07-28T20:39:34.778Z,21.70
2018-07-28T20:44:40.113Z,21.70
2018-07-28T20:49:44.370Z,21.70
2018-07-28T20:54:47.793Z,21.60
2018-07-28T20:59:51.152Z,21.60
2018-07-28T21:04:54.593Z,21.50
2018-07-28T21:09:57.835Z,21.50
2018-07-28T21:15:01.157Z,21.40
2018-07-28T21:20:04.720Z,21.40
2018-07-28T21:25:07.997Z,21.30
2018-07-28T21:30:11.182Z,21.30
2018-07-28T21:35:14.349Z,21.30
2018-07-28T21:40:17.527Z,21.30
2018-07-28T21:45:20.758Z,21.30
2018-07-28T21:50:24.211Z,21.20
2018-07-28T21:55:27.686Z,21.20
2018-07-28T22:01:38.933Z,21.20
2018-07-28T22:06:43.194Z,21.10
2018-07-28T22:11:46.442Z,21.10
2018-07-28T22:16:49.689Z,21.10
2018-07-28T22:21:54.401Z,21.00
2018-07-28T22:26:59.565Z,20.90
2018-07-28T22:32:05.433Z,21.00
2018-07-28T22:37:08.713Z,21.00
2018-07-28T22:42:13.658Z,20.90
2018-07-28T22:47:16.834Z,20.80
2018-07-28T22:52:22.849Z,20.90
2018-07-28T22:57:29.524Z,20.80
2018-07-28T23:02:33.217Z,20.90
2018-07-28T23:07:36.413Z,20.90
2018-07-28T23:12:41.294Z,20.80
2018-07-28T23:17:44.617Z,20.90
2018-07-28T23:22:48.877Z,21.00
2018-07-28T23:27:52.110Z,21.00
2018-07-28T23:32:55.258Z,21.10
2018-07-28T23:37:58.465Z,21.00
2018-07-28T23:43:01.690Z,21.10
2018-07-28T23:48:04.973Z,21.00
2018-07-28T23:53:08.174Z,21.10
2018-07-28T23:58:12.438Z,21.10
